2019 Ballard Cup Series III
Jul 15, 2019

Sloop Tavern Yacht Club

Committee Boat - Reckless

Race 1
R1 R2 R3 R4 R5 Series Overall

Class: 1 - Non-Flying Sails Division - Start: 18:15:00 - Course: NEMN - Distance: 2.089      

Boat Name SailNo Boat Type Skipper Rating Club Start Finish Elapsed Corrected BCE Notes Place OA
Gusto 44119 Swan 441 Beth Miller 108 STYC 18:15:00 19:11:29 0:56:29 0:52:43 0:00:00 1 33
Amoretto 79104 Jeanneau Arcada Martin Bower 204 STYC 18:15:00 19:14:59 0:59:59 0:52:53 0:00:10 2 34
White Rabbit 69366 J/40 Bradley Music 105 SBYC 18:15:00 19:17:18 1:02:18 0:58:39 0:05:56 3 37
Stardust 79977 Hunter Legend 37.5 Tito Soto 153 STYC 18:15:00 19:19:39 1:04:39 0:59:19 0:06:36 4 38
Blue Lullaby 391 Newport 28-2 John H Endresen 231 STYC 18:15:00 19:30:53 1:15:53 1:07:50 0:15:07 5 46
Whistling Swan 69494 Islander 36-1 Bill Pirrie 174 STYC 18:15:00 DNF 6 54
Flying Redhead 59285 Choate 27 Maxim Oustiougov 180 STYC 18:15:00 DNC 7 55
Frog Prints 79070 Dufr D 34 Tim Onders 192 STYC 18:15:00 DNC 7 55
Mangata 97971 Catalina 380 Steve Zeliadt 153 STYC 18:15:00 DNC 7 55
Midnigt Escape 2806 Kirby 25 Borge Ellingsen 204 STYC 18:15:00 DNC 7 55
No Ka Oi 15 J/80 Amy Deckelbaum 141 SSC 18:15:00 DNC 7 55
Wind Dancer 46489 Tartan 3800 Chris McMuldroch 153 STYC 18:15:00 DNC 7 55

Class: 2 - Flying Sails Division - Start: 18:20:00 - Course: NEMN - Distance: 2.089      

Boat Name SailNo Boat Type Skipper Rating Club Start Finish Elapsed Corrected BCE Notes Place OA
Rock Lobster 59306 San Juan 7.7 Trent Piepho 210 STYC 18:20:00 19:09:49 0:49:49 0:42:30 0:00:00 1 4
Airloom 69410 Baba 40-2 Tim Morgenroth 168 STYC 18:20:00 19:13:25 0:53:25 0:47:34 0:05:04 2 16
Lady Too 59382 San Jaun 28 Damon Darley 201 STYC 18:20:00 19:18:22 0:58:22 0:51:22 0:08:52 3 27
Jubilee USA 61251 1984 C&C Landfall 35 David Golden 186 STYC 18:20:00 19:47:54 1:27:54 1:21:25 0:38:55 4 53
Aquavit 3242 If Dave And Jenn 285 Sloop Tavern/Cyc 18:20:00 DNC 6 55
Sea Haven 930 Catalina 34 Cary Kaczowka 192 STYC/CYC 18:20:00 DNC 6 55
Water Street 1376 Cal 2-24 Mark Jackson 252 STYC 18:20:00 DNC 6 55

Class: 3 - Flying Sails Division - Start: 18:25:00 - Course: NEMN - Distance: 2.089      

Boat Name SailNo Boat Type Skipper Rating Club Start Finish Elapsed Corrected BCE Notes Place OA
Wizard 40427 J/27 Leo S Morales 135 WYC 18:25:00 19:13:21 0:48:21 0:43:39 0:00:00 1 5
More Uff Da 26 Moore 24-1 Ben Braden 168 STYC 18:25:00 19:15:13 0:50:13 0:44:22 0:00:43 2 6
Morphine 72 Moore 24 Nick Farley 168 STYC 18:25:00 19:22:03 0:57:03 0:51:12 0:07:33 3 26
Zap 59269 Zap 26 Don Sarin 147 STYC 18:25:00 19:21:35 0:56:35 0:51:28 0:07:49 4 30
Perfectly Strange 87210 Pocket Rocket 22-1 Paul Kalina 174 STYC 18:25:00 19:24:06 0:59:06 0:53:03 0:09:24 5 35
The Banana Stand 104 Santa Cruz 27 Adam Yuret 162 STYC 18:25:00 19:39:57 1:14:57 1:09:19 0:25:40 6 48
Norn 49450 Santa Cruz 27 Mitch Leupold 150 STYC 18:25:00 19:42:01 1:17:01 1:11:48 0:28:09 7 50
La Lucha Moore 131 Moore 24 Joe Grieser 168 STYC 18:25:00 DNC 9 55

Class: 4 - Flying Sails Division - Start: 18:30:00 - Course: NEMN - Distance: 2.089      

Boat Name SailNo Boat Type Skipper Rating Club Start Finish Elapsed Corrected BCE Notes Place OA
Gaucho 68 Ross 930 John Cahill 114 CYC 18:30:00 19:12:29 0:42:29 0:38:31 0:00:00 1 2
Wings 244 J/29 Jim Moynihan 120 STYC 18:30:00 19:19:20 0:49:20 0:45:09 0:06:38 2 8
Ruby 87603 J/29 Mh John Kazaras 120 STYC 18:30:00 19:19:59 0:49:59 0:45:48 0:07:17 3 13
Kowloon 17 Olson 911 Ken Chin 129 STYC 18:30:00 19:22:58 0:52:58 0:48:29 0:09:58 4 20
Outlaw 77108 J/30 Cindy Gossett 138 STYC 18:30:00 19:26:14 0:56:14 0:51:26 0:12:55 5 29
Vela Volta 61314 Bavaria Match 35 Steve Kirsch 117 STYC 18:30:00 19:34:44 1:04:44 1:00:40 0:22:09 6 40
Grayling 7 Q Class Duke H Phan 144 STYC 18:30:00 19:35:43 1:05:43 1:00:42 0:22:11 7 41
Mata Hari 1660 Catalina 36 Mkii Jeff Blyth 147 STYC 18:30:00 19:49:24 1:19:24 1:14:17 0:35:46 8 52
20degrees 18602 Wyle Duncan Chalmers 132 STYC 18:30:00 DNC 10 55
Celtic Breeze 233 Ericson 35 Mk3 Glenn Knitter 159 STYC 18:30:00 DNC 10 55
Elixir 29 A 101 Jarred Swalwell 150 STYC 18:30:00 DNC 10 55
Kamoon Na Jeanneau Mike Taft 162 STYC 18:30:00 DNC 10 55
Velella 150 Wylie 31 Ryan Helling 165 STYC 18:30:00 DNC 10 55

Class: 5 - Flying Sails Division - Start: 18:35:00 - Course: NEMN - Distance: 2.089      

Boat Name SailNo Boat Type Skipper Rating Club Start Finish Elapsed Corrected BCE Notes Place OA
Jolly Green 1 J/80 Mike Poole - Seattle Sailing Club 129 SSC 18:35:00 19:25:54 0:50:54 0:46:25 0:00:00 1 14
Crazy Ivan USA-151 J/80 Bryan Rhodes 129 STYC 18:35:00 19:26:27 0:51:27 0:46:58 0:00:33 2 15
Taj Mahal 445 J/80 Ian Wong 129 SSC 18:35:00 19:27:51 0:52:51 0:48:22 0:01:57 3 19
Namaste 257 J/80 John Lueders 129 SSC 18:35:00 19:33:13 0:58:13 0:53:44 0:07:19 4 36
Underdog 85 J/80 Dulnath Wijayratne 129 SSC 18:35:00 19:38:51 1:03:51 0:59:22 0:12:57 5 39
Fearful Symmetry 331 J/80 Elise Sivilay 129 SSC 18:35:00 19:46:33 1:11:33 1:07:04 0:20:39 6 45
Stellar J 546 J/80 Andreas Wieberneit 129 SSC 18:35:00 19:48:34 1:13:34 1:09:05 0:22:40 7 47
Uproar 41 J/80 Steve Neidhardt - Seattle Sailing Club 129 SSC 18:35:00 19:51:08 1:16:08 1:11:39 0:25:14 8 49
Reckless 296 J/80 Sezer Emre 129 STYC 18:35:00 CB 10 55

Class: 6 - Flying Sails Division - Start: 18:40:00 - Course: NEMN - Distance: 2.089      

Boat Name SailNo Boat Type Skipper Rating Club Start Finish Elapsed Corrected BCE Notes Place OA
Poke & Destroy 69061 Evelyn 32-2 Alex P Simanis 93 STYC 18:40:00 19:23:06 0:43:06 0:39:52 0:00:00 1 3
Liftoff 621 J/105 Philippe Le Mouel 93 STYC 18:40:00 19:31:20 0:51:20 0:48:06 0:08:14 2 17
Corvo 105 475 J/105 Tom Kerr 93 STYC 18:40:00 19:32:38 0:52:38 0:49:24 0:09:32 3 23
Avalanche 495 J/105 Jeremy Boynes 93 STYC 18:40:00 19:34:25 0:54:25 0:51:11 0:11:19 4 25
Poisson Soluble 69351 Hobie 33 Robert Horsley 96 STYC 18:40:00 19:35:14 0:55:14 0:51:53 0:12:01 5 31
Puff 115 J/105 Ryan Porter 93 SSC 18:40:00 19:44:49 1:04:49 1:01:35 0:21:43 6 42
Creative 51911 J/105 Steve Summers - Seattle Sailing Club 93 SSC 18:40:00 19:44:52 1:04:52 1:01:38 0:21:46 7 43
Dazed And Confused 129 Olson 30 Barry Crist 99 None Yet 18:40:00 19:49:29 1:09:29 1:06:02 0:26:10 Rating Pending 8 44
Paladin 412 J/105 Phil Bylsma - Seattle Sailing Club 93 SSC 18:40:00 19:55:59 1:15:59 1:12:45 0:32:53 9 51
Cyrano 253 J/105 Seattle Sailing Club 99 SSC 18:40:00 DNC 11 55
Insubordination 212 J/105 Buckey 93 CYC 18:40:00 DNC 11 55
Latitude 60680 Jeanneau 409 Bill Gibson 93 STYC 18:40:00 DNC 11 55
Moose Unknown 89 J/105 John Aitchison 93 STYC 18:40:00 DNC 11 55
Peer Gynt 235 J/105 Paul Viola 93 STYC 18:40:00 DNC 11 55

Class: 7 - Flying Sails Division - Start: 18:45:00 - Course: NEMN - Distance: 2.089      

Boat Name SailNo Boat Type Skipper Rating Club Start Finish Elapsed Corrected BCE Notes Place OA
Nefarous USA 53 Farr 30 Dan Randolph 54 STYC 18:45:00 19:21:52 0:36:52 0:34:59 0:00:00 1 1
Project Mayhem USA 64 Farr 30 Grady Morgan 54 SYC 18:45:00 19:31:30 0:46:30 0:44:37 0:09:38 2 7
Freja RSA 2 Aerodyne 43 Jonathan Cruse 18 STYC 18:45:00 19:30:52 0:45:52 0:45:14 0:10:15 3 9
Bat Out Of Hell USA 55 Farr 30 Lance Staughton 54 STYC 18:45:00 19:32:15 0:47:15 0:45:22 0:10:23 4 10
Eclipse 256 J/109-2 Fraser 69 STYC 18:45:00 19:32:49 0:47:49 0:45:25 0:10:26 5 11
Those Guys 18155 J/35 Jenny Heins 72 STYC 18:45:00 19:33:05 0:48:05 0:45:35 0:10:36 6 12
Lodos 171 J/109 Tolga Cezik 69 STYC/CYC 18:45:00 19:35:39 0:50:39 0:48:15 0:13:16 7 18
Tantivy 248 J/109 Stuart Burnell 69 CYC 18:45:00 19:36:16 0:51:16 0:48:52 0:13:53 8 21
Different Drummer 52804 Wauqueiz Centurion 40s Charles Hill 81 STYC 18:45:00 19:36:57 0:51:57 0:49:08 0:14:09 9 22
Lapa 309 J/109 Michael Campbell 69 STYC 18:45:00 19:37:20 0:52:20 0:49:56 0:14:57 10 24
Re-Quest 18266 Express 37 Alex Wetmore & Kerry Billingham 72 STYC 18:45:00 19:38:53 0:53:53 0:51:23 0:16:24 11 28
Shada 44 J/109 Jerry Woodfield 69 CYC 18:45:00 19:39:29 0:54:29 0:52:05 0:17:06 12 32
Artemis 97703 Andrews 53 Tom Muir -18 STYC 18:45:00 DNC 14 55
Escape 69160 Corsair F -27 Yury Palatnikov 79 Styc/Nwma 18:45:00 DNC 14 55
Tachyon 36000 Farr 39 C/R Jack Yinger 18 CYC 18:45:00 DNC 14 55

STYC scoring (Thu, Aug 8, 2019 - 06:48:14 ver)